createdAt,value
2023-02-19T00:01:09.653Z,4.53
2023-02-19T00:03:37.636Z,4.00
2023-02-19T00:06:05.503Z,4.40
2023-02-19T00:08:34.182Z,3.92
2023-02-19T00:11:02.668Z,5.57
2023-02-19T00:13:30.504Z,3.38
2023-02-19T00:15:58.455Z,4.38
2023-02-19T00:18:27.565Z,4.60
2023-02-19T00:20:58.142Z,4.15
2023-02-19T00:23:26.992Z,4.72
2023-02-19T00:25:54.890Z,3.75
2023-02-19T00:28:22.702Z,3.70
2023-02-19T00:30:50.415Z,3.90
2023-02-19T00:33:18.092Z,3.45
2023-02-19T00:35:47.096Z,4.25
2023-02-19T00:38:14.747Z,2.58
2023-02-19T00:40:42.380Z,3.45
2023-02-19T00:43:10.059Z,3.70
2023-02-19T00:45:38.304Z,3.20
2023-02-19T00:48:06.396Z,3.35
2023-02-19T00:50:34.047Z,3.92
2023-02-19T00:53:03.153Z,2.95
2023-02-19T00:55:31.555Z,2.65
2023-02-19T00:57:59.224Z,3.10
2023-02-19T01:00:26.910Z,2.97
2023-02-19T01:02:54.567Z,2.47
2023-02-19T01:05:22.680Z,2.65
2023-02-19T01:07:50.332Z,3.40
2023-02-19T01:10:19.510Z,3.05
2023-02-19T01:12:47.232Z,2.33
2023-02-19T01:15:14.891Z,2.22
2023-02-19T01:17:42.568Z,3.67
2023-02-19T01:20:10.564Z,2.92
2023-02-19T01:22:38.233Z,3.17
2023-02-19T01:25:06.178Z,2.83
2023-02-19T01:27:35.921Z,2.45
2023-02-19T01:30:03.645Z,3.17
2023-02-19T01:32:31.326Z,3.15
2023-02-19T01:34:59.042Z,2.70
2023-02-19T01:37:27.135Z,2.22
2023-02-19T01:39:57.690Z,2.78
2023-02-19T01:42:25.505Z,3.25
2023-02-19T01:45:18.676Z,2.38
2023-02-19T01:47:48.680Z,2.25
2023-02-19T01:50:16.446Z,2.55
2023-02-19T01:52:44.492Z,3.33
2023-02-19T01:55:14.635Z,3.10
2023-02-19T01:57:44.685Z,2.33
2023-02-19T02:00:13.936Z,1.73
2023-02-19T02:02:43.227Z,2.22
2023-02-19T02:05:16.491Z,2.10
2023-02-19T02:08:02.581Z,2.72
2023-02-19T02:10:30.512Z,1.70
2023-02-19T02:12:58.664Z,2.38
2023-02-19T02:15:29.015Z,1.90
2023-02-19T02:17:58.340Z,1.92
2023-02-19T02:20:33.970Z,2.38
2023-02-19T02:23:04.733Z,1.80
2023-02-19T02:25:42.239Z,1.90
2023-02-19T02:28:19.692Z,1.45
2023-02-19T02:30:49.958Z,2.05
2023-02-19T02:33:23.130Z,2.88
2023-02-19T02:35:52.431Z,1.63
2023-02-19T02:38:21.798Z,2.40
2023-02-19T02:40:49.590Z,2.25
2023-02-19T02:43:17.357Z,2.08
2023-02-19T02:45:45.146Z,1.52
2023-02-19T02:48:22.931Z,1.55
2023-02-19T02:50:52.364Z,1.80
2023-02-19T02:53:40.764Z,2.05
2023-02-19T02:56:09.485Z,1.95
2023-02-19T02:58:37.256Z,2.00
2023-02-19T03:01:25.766Z,1.75
2023-02-19T03:03:57.319Z,2.17
2023-02-19T03:06:26.922Z,2.85
2023-02-19T03:08:56.279Z,1.63
2023-02-19T03:11:41.711Z,2.55
2023-02-19T03:14:29.725Z,1.90
2023-02-19T03:17:16.510Z,1.92
2023-02-19T03:19:47.615Z,1.80
2023-02-19T03:22:19.956Z,2.03
2023-02-19T03:25:07.928Z,2.47
2023-02-19T03:27:37.527Z,2.63
2023-02-19T03:30:10.729Z,1.90
2023-02-19T03:32:41.876Z,2.05
2023-02-19T03:35:12.757Z,1.65
2023-02-19T03:37:42.423Z,1.73
2023-02-19T03:40:10.983Z,1.75
2023-02-19T03:42:42.760Z,2.30
2023-02-19T03:45:19.983Z,1.73
2023-02-19T03:47:53.193Z,2.55
2023-02-19T03:50:23.338Z,1.90
2023-02-19T03:52:55.205Z,3.28
2023-02-19T03:55:27.593Z,1.55
2023-02-19T03:57:56.536Z,2.47
2023-02-19T04:00:26.325Z,1.92
2023-02-19T04:02:56.761Z,2.75
2023-02-19T04:05:27.766Z,2.35
2023-02-19T04:07:58.578Z,2.17
2023-02-19T04:10:27.131Z,1.92
2023-02-19T04:12:57.179Z,1.88
2023-02-19T04:15:26.646Z,2.80
2023-02-19T04:17:56.650Z,2.45
2023-02-19T04:20:29.691Z,1.80
2023-02-19T04:22:58.101Z,2.58
2023-02-19T04:25:27.558Z,1.92
2023-02-19T04:27:55.658Z,2.40
2023-02-19T04:30:23.527Z,2.22
2023-02-19T04:32:51.203Z,1.75
2023-02-19T04:35:18.827Z,1.88
2023-02-19T04:37:47.855Z,3.05
2023-02-19T04:40:15.526Z,2.17
2023-02-19T04:42:43.155Z,2.17
2023-02-19T04:45:11.400Z,1.83
2023-02-19T04:47:39.237Z,3.38
2023-02-19T04:50:07.866Z,2.42
2023-02-19T04:52:35.496Z,1.60
2023-02-19T04:55:04.573Z,2.10
2023-02-19T04:57:32.449Z,2.60
2023-02-19T05:00:00.188Z,2.03
2023-02-19T05:02:28.231Z,2.42
2023-02-19T05:04:55.881Z,2.13
2023-02-19T05:07:23.569Z,2.58
2023-02-19T05:09:51.243Z,1.23
2023-02-19T05:12:20.245Z,2.80
2023-02-19T05:14:47.931Z,2.20
2023-02-19T05:17:15.607Z,2.17
2023-02-19T05:19:43.230Z,2.53
2023-02-19T05:22:10.893Z,2.13
2023-02-19T05:24:38.535Z,1.42
2023-02-19T05:27:06.913Z,2.28
2023-02-19T05:29:35.942Z,1.95
2023-02-19T05:32:03.747Z,2.22
2023-02-19T05:34:31.423Z,2.20
2023-02-19T05:36:59.059Z,3.13
2023-02-19T05:39:26.797Z,2.05
2023-02-19T05:41:54.460Z,1.70
2023-02-19T05:44:22.227Z,2.47
2023-02-19T05:46:51.408Z,2.50
2023-02-19T05:49:19.114Z,2.60
2023-02-19T05:51:46.762Z,2.25
2023-02-19T05:54:14.603Z,2.10
2023-02-19T05:56:42.925Z,2.53
2023-02-19T05:59:16.800Z,2.40
2023-02-19T06:01:44.578Z,1.92
2023-02-19T06:04:15.499Z,3.17
2023-02-19T06:06:44.020Z,2.08
2023-02-19T06:09:13.574Z,2.05
2023-02-19T06:11:41.306Z,1.75
2023-02-19T06:14:09.061Z,2.40
2023-02-19T06:16:36.692Z,2.00
2023-02-19T06:19:05.012Z,2.10
2023-02-19T06:21:34.042Z,1.80
2023-02-19T06:24:05.707Z,2.95
2023-02-19T06:26:33.403Z,3.28
2023-02-19T06:29:01.053Z,2.40
2023-02-19T06:31:28.986Z,2.38
2023-02-19T06:33:56.761Z,1.85
2023-02-19T06:36:27.062Z,1.58
2023-02-19T06:39:00.360Z,1.67
2023-02-19T06:41:28.087Z,2.20
2023-02-19T06:43:55.753Z,2.58
2023-02-19T06:46:25.788Z,2.65
2023-02-19T06:48:54.315Z,2.75
2023-02-19T06:51:24.309Z,2.15
2023-02-19T06:53:51.954Z,1.63
2023-02-19T06:56:26.014Z,3.53
2023-02-19T06:58:54.029Z,3.15
2023-02-19T07:01:21.874Z,2.25
2023-02-19T07:03:49.687Z,2.33
2023-02-19T07:06:17.727Z,1.90
2023-02-19T07:08:45.371Z,2.25
2023-02-19T07:11:16.222Z,2.40
2023-02-19T07:13:45.671Z,2.20
2023-02-19T07:16:13.898Z,2.33
2023-02-19T07:18:41.898Z,2.28
2023-02-19T07:21:10.835Z,2.53
2023-02-19T07:23:38.934Z,1.65
2023-02-19T07:26:09.382Z,1.88
2023-02-19T07:28:37.473Z,1.98
2023-02-19T07:31:06.850Z,2.10
2023-02-19T07:33:34.560Z,1.60
2023-02-19T07:36:02.291Z,1.73
2023-02-19T07:38:30.358Z,1.88
2023-02-19T07:40:59.100Z,1.67
2023-02-19T07:43:27.457Z,3.38
2023-02-19T07:45:55.700Z,2.63
2023-02-19T07:48:27.061Z,1.70
2023-02-19T07:50:55.450Z,3.55
2023-02-19T07:53:23.848Z,1.80
2023-02-19T07:55:51.746Z,1.90
2023-02-19T07:58:19.448Z,1.98
2023-02-19T08:00:47.194Z,2.03
2023-02-19T08:03:15.036Z,2.30
2023-02-19T08:05:44.996Z,2.08
2023-02-19T08:08:14.398Z,1.85
2023-02-19T08:10:59.750Z,1.67
2023-02-19T08:13:28.549Z,2.50
2023-02-19T08:16:07.527Z,2.08
2023-02-19T08:18:42.476Z,2.95
2023-02-19T08:21:11.877Z,2.08
2023-02-19T08:23:40.359Z,2.72
2023-02-19T08:26:09.876Z,2.08
2023-02-19T08:28:37.737Z,1.92
2023-02-19T08:31:06.957Z,2.03
2023-02-19T08:33:34.716Z,2.50
2023-02-19T08:36:04.638Z,3.08
2023-02-19T08:38:35.878Z,2.65
2023-02-19T08:41:05.579Z,2.22
2023-02-19T08:43:33.268Z,2.85
2023-02-19T08:46:00.948Z,1.95
2023-02-19T08:48:28.951Z,2.95
2023-02-19T08:50:57.675Z,1.90
2023-02-19T08:53:25.725Z,2.08
2023-02-19T08:55:54.984Z,2.00
2023-02-19T08:58:22.723Z,2.40
2023-02-19T09:00:50.388Z,2.45
2023-02-19T09:03:18.051Z,2.15
2023-02-19T09:05:46.835Z,2.53
2023-02-19T09:08:15.813Z,1.65
2023-02-19T09:10:43.434Z,2.10
2023-02-19T09:13:13.137Z,2.45
2023-02-19T09:15:40.833Z,2.55
2023-02-19T09:18:12.233Z,2.40
2023-02-19T09:20:39.935Z,2.05
2023-02-19T09:23:07.694Z,2.92
2023-02-19T09:25:35.351Z,2.13
2023-02-19T09:28:03.318Z,2.55
2023-02-19T09:30:32.399Z,3.13
2023-02-19T09:33:00.135Z,2.22
2023-02-19T09:35:27.803Z,2.55
2023-02-19T09:37:55.543Z,2.38
2023-02-19T09:40:23.260Z,2.63
2023-02-19T09:42:51.109Z,2.38
2023-02-19T09:45:22.386Z,2.58
2023-02-19T09:47:54.268Z,2.05
2023-02-19T09:50:23.662Z,3.92
2023-02-19T09:52:53.328Z,2.25
2023-02-19T09:55:26.049Z,2.08
2023-02-19T09:57:53.856Z,2.47
2023-02-19T10:00:25.302Z,2.38
2023-02-19T10:02:56.345Z,2.47
2023-02-19T10:05:24.554Z,2.33
2023-02-19T10:07:54.393Z,2.30
2023-02-19T10:10:25.390Z,2.08
2023-02-19T10:12:54.800Z,2.13
2023-02-19T10:15:26.138Z,1.77
2023-02-19T10:17:55.798Z,2.20
2023-02-19T10:20:27.782Z,1.65
2023-02-19T10:23:06.652Z,1.52
2023-02-19T10:25:35.008Z,2.10
2023-02-19T10:28:03.309Z,2.13
2023-02-19T10:30:31.675Z,1.60
2023-02-19T10:33:02.466Z,2.33
2023-02-19T10:35:30.524Z,2.35
2023-02-19T10:37:59.241Z,2.03
2023-02-19T10:40:30.044Z,2.00
2023-02-19T10:42:59.138Z,3.05
2023-02-19T10:45:33.805Z,1.88
2023-02-19T10:48:04.113Z,2.83
2023-02-19T10:50:33.077Z,1.80
2023-02-19T10:53:01.861Z,2.45
2023-02-19T10:55:31.218Z,1.98
2023-02-19T10:58:16.228Z,2.42
2023-02-19T11:00:43.893Z,3.45
2023-02-19T11:03:19.918Z,2.20
2023-02-19T11:06:01.894Z,2.60
2023-02-19T11:08:33.285Z,2.13
2023-02-19T11:11:01.252Z,3.08
2023-02-19T11:13:32.247Z,2.53
2023-02-19T11:16:01.100Z,2.47
2023-02-19T11:18:31.593Z,1.92
2023-02-19T11:21:00.645Z,2.28
2023-02-19T11:23:29.688Z,2.60
2023-02-19T11:25:58.588Z,2.28
2023-02-19T11:28:32.789Z,2.22
2023-02-19T11:31:21.228Z,2.53
2023-02-19T11:33:54.556Z,2.25
2023-02-19T11:36:29.981Z,1.90
2023-02-19T11:38:58.775Z,1.95
2023-02-19T11:41:31.684Z,2.10
2023-02-19T11:44:07.281Z,1.92
2023-02-19T11:46:40.154Z,2.08
2023-02-19T11:49:14.733Z,2.00
2023-02-19T11:51:52.306Z,1.70
2023-02-19T11:54:25.526Z,2.30
2023-02-19T11:56:58.377Z,1.88
2023-02-19T11:59:28.882Z,2.47
2023-02-19T12:02:03.816Z,2.72
2023-02-19T12:04:50.059Z,2.42
2023-02-19T12:07:27.771Z,2.13
2023-02-19T12:10:04.437Z,1.90
2023-02-19T12:12:43.084Z,1.77
2023-02-19T12:15:23.640Z,1.50
2023-02-19T12:18:10.208Z,1.98
2023-02-19T12:20:42.790Z,2.08
2023-02-19T12:23:34.865Z,1.90
2023-02-19T12:26:04.700Z,2.33
2023-02-19T12:28:44.703Z,2.58
2023-02-19T12:31:28.516Z,1.88
2023-02-19T12:34:08.792Z,2.40
2023-02-19T12:36:41.442Z,2.20
2023-02-19T12:39:15.700Z,2.55
2023-02-19T12:41:45.816Z,2.20
2023-02-19T12:44:16.235Z,2.03
2023-02-19T12:46:45.819Z,2.47
2023-02-19T12:49:16.424Z,2.33
2023-02-19T12:51:46.266Z,2.22
2023-02-19T12:54:17.828Z,2.17
2023-02-19T12:56:48.752Z,3.10
2023-02-19T12:59:19.529Z,1.98
2023-02-19T13:01:49.950Z,2.03
2023-02-19T13:04:23.871Z,2.72
2023-02-19T13:06:54.913Z,2.03
2023-02-19T13:09:28.374Z,2.20
2023-02-19T13:11:58.278Z,1.73
2023-02-19T13:14:29.172Z,2.20
2023-02-19T13:17:00.209Z,2.00
2023-02-19T13:19:27.958Z,1.88
2023-02-19T13:22:17.320Z,1.67
2023-02-19T13:24:47.813Z,1.80
2023-02-19T13:27:28.290Z,1.90
2023-02-19T13:30:06.107Z,1.80
2023-02-19T13:32:42.679Z,2.33
2023-02-19T13:35:21.965Z,2.25
2023-02-19T13:37:50.095Z,1.80
2023-02-19T13:40:26.032Z,1.83
2023-02-19T13:42:57.066Z,1.88
2023-02-19T13:45:27.070Z,2.05
2023-02-19T13:48:01.042Z,1.40
2023-02-19T13:50:29.849Z,1.38
2023-02-19T13:52:57.922Z,1.10
2023-02-19T13:55:49.783Z,2.22
2023-02-19T13:58:36.019Z,1.48
2023-02-19T14:01:04.756Z,1.55
2023-02-19T14:03:41.822Z,1.60
2023-02-19T14:06:10.427Z,1.90
2023-02-19T14:08:48.632Z,1.30
2023-02-19T14:11:17.847Z,1.10
2023-02-19T14:14:11.052Z,1.23
2023-02-19T14:16:53.603Z,1.60
2023-02-19T14:19:39.571Z,1.40
2023-02-19T14:22:22.279Z,2.35
2023-02-19T14:24:50.298Z,1.80
2023-02-19T14:27:19.444Z,1.83
2023-02-19T14:29:47.177Z,2.22
2023-02-19T14:32:19.561Z,2.08
2023-02-19T14:34:47.409Z,1.88
2023-02-19T14:37:18.263Z,1.80
2023-02-19T14:39:46.118Z,1.83
2023-02-19T14:42:17.501Z,2.63
2023-02-19T14:44:49.316Z,1.90
2023-02-19T14:47:18.481Z,2.30
2023-02-19T14:49:47.893Z,2.35
2023-02-19T14:52:18.783Z,2.47
2023-02-19T14:54:49.475Z,1.98
2023-02-19T14:57:19.027Z,3.17
2023-02-19T14:59:58.669Z,2.20
2023-02-19T15:02:27.374Z,2.30
2023-02-19T15:04:55.356Z,2.15
2023-02-19T15:07:24.885Z,2.30
2023-02-19T15:09:54.504Z,1.80
2023-02-19T15:12:24.102Z,2.17
2023-02-19T15:14:54.006Z,2.92
2023-02-19T15:17:26.360Z,1.73
2023-02-19T15:19:55.586Z,2.15
2023-02-19T15:22:25.361Z,2.15
2023-02-19T15:24:53.066Z,2.63
2023-02-19T15:27:22.442Z,2.08
2023-02-19T15:29:53.606Z,2.80
2023-02-19T15:32:22.983Z,2.45
2023-02-19T15:34:58.707Z,2.20
2023-02-19T15:37:27.090Z,2.05
2023-02-19T15:39:55.254Z,1.77
2023-02-19T15:42:25.338Z,2.25
2023-02-19T15:44:57.022Z,2.78
2023-02-19T15:47:28.749Z,1.95
2023-02-19T15:49:59.953Z,2.25
2023-02-19T15:52:34.334Z,1.88
2023-02-19T15:55:05.018Z,1.83
2023-02-19T15:57:34.940Z,2.08
2023-02-19T16:00:04.651Z,2.33
2023-02-19T16:02:33.708Z,2.22
2023-02-19T16:05:04.011Z,1.45
2023-02-19T16:07:32.951Z,2.35
2023-02-19T16:10:24.470Z,2.25
2023-02-19T16:12:59.169Z,2.33
2023-02-19T16:15:27.555Z,1.85
2023-02-19T16:17:55.436Z,1.80
2023-02-19T16:20:25.858Z,1.85
2023-02-19T16:22:57.517Z,2.25
2023-02-19T16:25:30.892Z,2.30
2023-02-19T16:27:59.294Z,2.40
2023-02-19T16:30:31.501Z,2.35
2023-02-19T16:33:17.781Z,2.28
2023-02-19T16:35:48.228Z,2.10
2023-02-19T16:38:17.003Z,2.75
2023-02-19T16:41:02.217Z,2.50
2023-02-19T16:43:32.896Z,2.05
2023-02-19T16:46:07.970Z,2.78
2023-02-19T16:48:36.014Z,2.55
2023-02-19T16:51:06.095Z,2.75
2023-02-19T16:53:33.854Z,2.70
2023-02-19T16:56:01.524Z,2.83
2023-02-19T16:58:29.192Z,3.40
2023-02-19T17:00:57.429Z,2.70
2023-02-19T17:03:25.896Z,2.60
2023-02-19T17:05:55.437Z,2.20
2023-02-19T17:08:31.166Z,2.20
2023-02-19T17:10:59.316Z,2.28
2023-02-19T17:13:27.104Z,2.22
2023-02-19T17:15:55.146Z,1.83
2023-02-19T17:18:22.879Z,2.15
2023-02-19T17:20:52.112Z,2.75
2023-02-19T17:23:20.147Z,2.70
2023-02-19T17:25:49.317Z,2.47
2023-02-19T17:28:16.960Z,2.60
2023-02-19T17:30:44.814Z,2.47
2023-02-19T17:33:12.492Z,2.20
2023-02-19T17:35:42.423Z,3.90
2023-02-19T17:38:10.832Z,3.38
2023-02-19T17:40:39.629Z,3.55
2023-02-19T17:43:08.680Z,2.80
2023-02-19T17:45:36.312Z,3.13
2023-02-19T17:48:04.213Z,2.80
2023-02-19T17:50:32.777Z,3.00
2023-02-19T17:53:00.461Z,3.50
2023-02-19T17:55:28.369Z,3.28
2023-02-19T17:57:56.048Z,3.08
2023-02-19T18:00:26.296Z,3.58
2023-02-19T18:02:54.040Z,3.55
2023-02-19T18:05:21.920Z,3.80
2023-02-19T18:07:49.724Z,3.88
2023-02-19T18:10:23.448Z,4.82
2023-02-19T18:12:51.276Z,6.22
2023-02-19T18:15:20.219Z,6.50
2023-02-19T18:17:49.349Z,5.28
2023-02-19T18:20:18.486Z,4.25
2023-02-19T18:22:46.201Z,4.28
2023-02-19T18:25:14.117Z,4.40
2023-02-19T18:27:43.167Z,4.75
2023-02-19T18:30:11.610Z,4.35
2023-02-19T18:32:39.430Z,4.00
2023-02-19T18:35:09.211Z,5.00
2023-02-19T18:37:36.991Z,4.38
2023-02-19T18:40:05.391Z,4.28
2023-02-19T18:42:33.239Z,3.83
2023-02-19T18:45:04.775Z,4.85
2023-02-19T18:47:32.464Z,4.72
2023-02-19T18:50:00.563Z,4.45
2023-02-19T18:52:29.674Z,4.75
2023-02-19T18:54:59.874Z,3.63
2023-02-19T18:57:27.770Z,4.55
2023-02-19T18:59:55.529Z,4.05
2023-02-19T19:02:23.372Z,4.05
2023-02-19T19:04:52.101Z,3.92
2023-02-19T19:07:20.505Z,3.88
2023-02-19T19:09:50.035Z,4.03
2023-02-19T19:12:18.131Z,4.13
2023-02-19T19:14:46.811Z,4.95
2023-02-19T19:17:14.775Z,5.20
2023-02-19T19:19:43.896Z,4.80
2023-02-19T19:22:11.841Z,4.93
2023-02-19T19:24:39.523Z,6.35
2023-02-19T19:27:08.805Z,6.95
2023-02-19T19:29:36.820Z,6.90
2023-02-19T19:32:08.112Z,5.13
2023-02-19T19:34:36.336Z,5.30
2023-02-19T19:37:04.108Z,4.78
2023-02-19T19:39:31.961Z,5.72
2023-02-19T19:41:59.700Z,7.28
2023-02-19T19:44:28.747Z,6.18
2023-02-19T19:46:56.547Z,6.78
2023-02-19T19:49:24.611Z,7.10
2023-02-19T19:51:52.343Z,6.97
2023-02-19T19:54:20.206Z,6.30
2023-02-19T19:56:50.255Z,6.70
2023-02-19T19:59:18.928Z,6.15
2023-02-19T20:01:51.932Z,5.55
2023-02-19T20:04:20.113Z,5.35
2023-02-19T20:06:48.480Z,6.35
2023-02-19T20:09:16.428Z,7.15
2023-02-19T20:11:44.732Z,5.53
2023-02-19T20:14:12.643Z,6.82
2023-02-19T20:16:43.233Z,6.75
2023-02-19T20:19:13.645Z,5.85
2023-02-19T20:21:44.815Z,6.03
2023-02-19T20:24:14.608Z,6.75
2023-02-19T20:26:45.343Z,5.40
2023-02-19T20:29:13.285Z,5.30
2023-02-19T20:31:41.114Z,5.72
2023-02-19T20:34:08.806Z,5.85
2023-02-19T20:36:44.542Z,6.70
2023-02-19T20:39:12.293Z,5.45
2023-02-19T20:41:40.048Z,6.15
2023-02-19T20:44:07.802Z,7.07
2023-02-19T20:46:41.198Z,4.97
2023-02-19T20:49:09.016Z,6.35
2023-02-19T20:51:44.680Z,5.47
2023-02-19T20:54:12.302Z,5.50
2023-02-19T20:56:44.560Z,4.85
2023-02-19T20:59:12.200Z,5.38
2023-02-19T21:01:39.873Z,4.53
2023-02-19T21:04:07.702Z,6.15
2023-02-19T21:06:35.516Z,6.45
2023-02-19T21:09:05.723Z,5.63
2023-02-19T21:11:33.683Z,4.90
2023-02-19T21:14:01.473Z,6.35
2023-02-19T21:16:30.500Z,5.45
2023-02-19T21:18:58.249Z,6.88
2023-02-19T21:21:27.053Z,7.18
2023-02-19T21:23:55.125Z,5.85
2023-02-19T21:26:37.691Z,6.97
2023-02-19T21:29:07.671Z,6.25
2023-02-19T21:31:38.619Z,7.20
2023-02-19T21:34:06.541Z,7.35
2023-02-19T21:36:34.438Z,6.53
2023-02-19T21:39:02.225Z,6.55
2023-02-19T21:41:30.092Z,7.00
2023-02-19T21:43:57.835Z,7.00
2023-02-19T21:46:26.995Z,6.80
2023-02-19T21:48:55.456Z,6.78
2023-02-19T21:51:28.678Z,6.65
2023-02-19T21:53:56.532Z,5.75
2023-02-19T21:56:25.213Z,7.57
2023-02-19T21:58:52.986Z,6.22
2023-02-19T22:01:21.116Z,6.13
2023-02-19T22:03:50.201Z,6.35
2023-02-19T22:06:18.908Z,6.03
2023-02-19T22:08:46.896Z,6.43
2023-02-19T22:11:14.783Z,6.78
2023-02-19T22:13:43.449Z,6.05
2023-02-19T22:16:11.597Z,6.03
2023-02-19T22:18:39.515Z,6.22
2023-02-19T22:21:08.578Z,6.30
2023-02-19T22:23:37.026Z,5.93
2023-02-19T22:26:04.754Z,6.30
2023-02-19T22:28:32.385Z,6.90
2023-02-19T22:31:00.108Z,8.07
2023-02-19T22:33:27.856Z,6.35
2023-02-19T22:35:55.668Z,5.70
2023-02-19T22:38:24.788Z,6.22
2023-02-19T22:40:52.596Z,5.38
2023-02-19T22:43:20.324Z,6.40
2023-02-19T22:45:48.109Z,6.10
2023-02-19T22:48:25.167Z,5.13
2023-02-19T22:50:59.203Z,6.28
2023-02-19T22:53:28.577Z,5.75
2023-02-19T22:55:56.239Z,6.07
2023-02-19T22:58:23.965Z,5.90
2023-02-19T23:00:51.674Z,4.88
2023-02-19T23:03:19.334Z,5.10
2023-02-19T23:05:47.016Z,6.90
2023-02-19T23:08:14.697Z,4.53
2023-02-19T23:10:47.908Z,4.95
2023-02-19T23:13:15.567Z,6.32
2023-02-19T23:15:43.231Z,5.90
2023-02-19T23:18:11.049Z,5.32
2023-02-19T23:20:38.716Z,4.60
2023-02-19T23:23:06.405Z,4.97
2023-02-19T23:25:34.075Z,4.50
2023-02-19T23:28:03.137Z,5.38
2023-02-19T23:30:30.998Z,4.75
2023-02-19T23:32:58.692Z,4.63
2023-02-19T23:35:26.359Z,4.38
2023-02-19T23:37:55.101Z,5.43
2023-02-19T23:40:22.904Z,5.22
2023-02-19T23:42:50.544Z,5.85
2023-02-19T23:45:19.857Z,7.25
2023-02-19T23:47:47.546Z,7.65
2023-02-19T23:50:15.836Z,6.75
2023-02-19T23:52:43.649Z,8.57
2023-02-19T23:55:11.723Z,8.80
2023-02-19T23:57:39.454Z,8.20
